sensor_id;sensor_type;location;lat;lon;timestamp;pressure;altitude;pressure_sealevel;temperature;humidity
51147;BME280;37207;53.060;18.726;2022-10-23T00:01:25;100744.73;;;11.98;100.00
51147;BME280;37207;53.060;18.726;2022-10-23T00:03:58;100741.98;;;11.99;100.00
51147;BME280;37207;53.060;18.726;2022-10-23T00:06:26;100744.50;;;11.99;100.00
51147;BME280;37207;53.060;18.726;2022-10-23T00:08:53;100742.79;;;11.99;100.00
51147;BME280;37207;53.060;18.726;2022-10-23T00:11:23;100746.86;;;11.98;100.00
51147;BME280;37207;53.060;18.726;2022-10-23T00:13:53;100743.73;;;11.98;100.00
51147;BME280;37207;53.060;18.726;2022-10-23T00:16:20;100750.42;;;11.97;100.00
51147;BME280;37207;53.060;18.726;2022-10-23T00:18:47;100744.58;;;11.97;100.00
51147;BME280;37207;53.060;18.726;2022-10-23T00:21:15;100742.36;;;11.96;100.00
51147;BME280;37207;53.060;18.726;2022-10-23T00:23:43;100749.16;;;11.95;100.00
51147;BME280;37207;53.060;18.726;2022-10-23T00:26:11;100754.55;;;11.93;100.00
51147;BME280;37207;53.060;18.726;2022-10-23T00:28:42;100759.48;;;11.93;100.00
51147;BME280;37207;53.060;18.726;2022-10-23T00:31:09;100759.52;;;11.93;100.00
51147;BME280;37207;53.060;18.726;2022-10-23T00:33:36;100756.95;;;11.92;100.00
51147;BME280;37207;53.060;18.726;2022-10-23T00:36:08;100761.52;;;11.92;100.00
51147;BME280;37207;53.060;18.726;2022-10-23T00:38:36;100762.33;;;11.92;100.00
51147;BME280;37207;53.060;18.726;2022-10-23T00:41:04;100758.74;;;11.91;100.00
51147;BME280;37207;53.060;18.726;2022-10-23T00:43:33;100755.98;;;11.91;100.00
51147;BME280;37207;53.060;18.726;2022-10-23T00:46:00;100756.52;;;11.91;100.00
51147;BME280;37207;53.060;18.726;2022-10-23T00:48:28;100754.16;;;11.91;100.00
51147;BME280;37207;53.060;18.726;2022-10-23T00:50:54;100752.86;;;11.90;100.00
51147;BME280;37207;53.060;18.726;2022-10-23T00:53:22;100749.57;;;11.90;100.00
51147;BME280;37207;53.060;18.726;2022-10-23T00:55:50;100749.62;;;11.90;100.00
51147;BME280;37207;53.060;18.726;2022-10-23T00:58:19;100749.67;;;11.89;100.00
51147;BME280;37207;53.060;18.726;2022-10-23T01:00:47;100744.83;;;11.88;100.00
51147;BME280;37207;53.060;18.726;2022-10-23T01:03:16;100748.39;;;11.88;100.00
51147;BME280;37207;53.060;18.726;2022-10-23T01:05:58;100750.11;;;11.87;100.00
51147;BME280;37207;53.060;18.726;2022-10-23T01:11:21;100747.30;;;11.85;100.00
51147;BME280;37207;53.060;18.726;2022-10-23T01:14:48;100754.44;;;11.83;100.00
51147;BME280;37207;53.060;18.726;2022-10-23T01:17:21;100751.11;;;11.82;100.00
51147;BME280;37207;53.060;18.726;2022-10-23T01:25:30;100756.88;;;11.80;100.00
51147;BME280;37207;53.060;18.726;2022-10-23T01:28:04;100760.80;;;11.79;100.00
51147;BME280;37207;53.060;18.726;2022-10-23T01:30:38;100768.08;;;11.79;100.00
51147;BME280;37207;53.060;18.726;2022-10-23T01:33:10;100765.86;;;11.79;100.00
51147;BME280;37207;53.060;18.726;2022-10-23T01:35:52;100761.54;;;11.78;100.00
51147;BME280;37207;53.060;18.726;2022-10-23T01:41:02;100753.89;;;11.78;100.00
51147;BME280;37207;53.060;18.726;2022-10-23T01:44:13;100748.80;;;11.78;100.00
51147;BME280;37207;53.060;18.726;2022-10-23T01:46:43;100746.23;;;11.78;100.00
51147;BME280;37207;53.060;18.726;2022-10-23T01:49:12;100745.23;;;11.77;100.00
51147;BME280;37207;53.060;18.726;2022-10-23T01:51:45;100741.41;;;11.78;100.00
51147;BME280;37207;53.060;18.726;2022-10-23T01:54:15;100737.23;;;11.78;100.00
51147;BME280;37207;53.060;18.726;2022-10-23T01:56:46;100732.31;;;11.77;100.00
51147;BME280;37207;53.060;18.726;2022-10-23T01:59:20;100731.05;;;11.78;100.00
51147;BME280;37207;53.060;18.726;2022-10-23T02:01:50;100729.98;;;11.78;100.00
51147;BME280;37207;53.060;18.726;2022-10-23T02:04:30;100728.48;;;11.78;100.00
51147;BME280;37207;53.060;18.726;2022-10-23T02:06:59;100726.31;;;11.79;100.00
51147;BME280;37207;53.060;18.726;2022-10-23T02:09:26;100726.23;;;11.79;100.00
51147;BME280;37207;53.060;18.726;2022-10-23T02:11:58;100719.83;;;11.79;100.00
51147;BME280;37207;53.060;18.726;2022-10-23T02:15:01;100720.29;;;11.79;100.00
51147;BME280;37207;53.060;18.726;2022-10-23T02:20:36;100714.25;;;11.80;100.00
51147;BME280;37207;53.060;18.726;2022-10-23T02:23:25;100718.84;;;11.80;100.00
51147;BME280;37207;53.060;18.726;2022-10-23T02:28:57;100732.48;;;11.80;100.00
51147;BME280;37207;53.060;18.726;2022-10-23T02:31:26;100736.05;;;11.81;100.00
51147;BME280;37207;53.060;18.726;2022-10-23T02:33:53;100732.69;;;11.82;100.00
51147;BME280;37207;53.060;18.726;2022-10-23T02:36:19;100740.39;;;11.83;100.00
51147;BME280;37207;53.060;18.726;2022-10-23T02:38:46;100743.16;;;11.83;100.00
51147;BME280;37207;53.060;18.726;2022-10-23T02:43:52;100748.20;;;11.83;100.00
51147;BME280;37207;53.060;18.726;2022-10-23T02:46:28;100747.14;;;11.83;100.00
51147;BME280;37207;53.060;18.726;2022-10-23T02:51:41;100735.67;;;11.84;100.00
51147;BME280;37207;53.060;18.726;2022-10-23T02:57:21;100747.40;;;11.84;100.00
51147;BME280;37207;53.060;18.726;2022-10-23T03:00:11;100744.20;;;11.85;100.00
51147;BME280;37207;53.060;18.726;2022-10-23T03:02:44;100742.48;;;11.86;100.00
51147;BME280;37207;53.060;18.726;2022-10-23T03:05:19;100744.41;;;11.86;100.00
51147;BME280;37207;53.060;18.726;2022-10-23T03:07:48;100743.01;;;11.87;100.00
51147;BME280;37207;53.060;18.726;2022-10-23T03:10:16;100753.33;;;11.88;100.00
51147;BME280;37207;53.060;18.726;2022-10-23T03:12:44;100759.92;;;11.88;100.00
51147;BME280;37207;53.060;18.726;2022-10-23T03:15:12;100757.02;;;11.89;100.00
51147;BME280;37207;53.060;18.726;2022-10-23T03:17:39;100759.59;;;11.90;100.00
51147;BME280;37207;53.060;18.726;2022-10-23T03:20:08;100763.73;;;11.91;100.00
51147;BME280;37207;53.060;18.726;2022-10-23T03:22:35;100763.73;;;11.92;100.00
51147;BME280;37207;53.060;18.726;2022-10-23T03:25:02;100764.69;;;11.92;100.00
51147;BME280;37207;53.060;18.726;2022-10-23T03:27:30;100759.05;;;11.92;100.00
51147;BME280;37207;53.060;18.726;2022-10-23T03:29:57;100758.61;;;11.93;100.00
51147;BME280;37207;53.060;18.726;2022-10-23T03:32:23;100759.36;;;11.92;100.00
51147;BME280;37207;53.060;18.726;2022-10-23T03:34:50;100765.71;;;11.93;100.00
51147;BME280;37207;53.060;18.726;2022-10-23T03:37:16;100767.42;;;11.93;100.00
51147;BME280;37207;53.060;18.726;2022-10-23T03:39:43;100766.67;;;11.93;100.00
51147;BME280;37207;53.060;18.726;2022-10-23T03:42:10;100773.06;;;11.93;100.00
51147;BME280;37207;53.060;18.726;2022-10-23T03:44:36;100771.80;;;11.93;100.00
51147;BME280;37207;53.060;18.726;2022-10-23T03:47:03;100772.20;;;11.93;100.00
51147;BME280;37207;53.060;18.726;2022-10-23T03:49:30;100773.80;;;11.93;100.00
51147;BME280;37207;53.060;18.726;2022-10-23T03:52:02;100771.40;;;11.93;100.00
51147;BME280;37207;53.060;18.726;2022-10-23T03:54:29;100774.17;;;11.93;100.00
51147;BME280;37207;53.060;18.726;2022-10-23T03:56:56;100776.02;;;11.93;100.00
51147;BME280;37207;53.060;18.726;2022-10-23T03:59:23;100775.27;;;11.92;100.00
51147;BME280;37207;53.060;18.726;2022-10-23T04:01:50;100779.70;;;11.92;100.00
51147;BME280;37207;53.060;18.726;2022-10-23T04:04:17;100776.98;;;11.93;100.00
51147;BME280;37207;53.060;18.726;2022-10-23T04:06:44;100773.96;;;11.93;100.00
51147;BME280;37207;53.060;18.726;2022-10-23T04:09:11;100773.81;;;11.93;100.00
51147;BME280;37207;53.060;18.726;2022-10-23T04:11:37;100775.73;;;11.92;100.00
51147;BME280;37207;53.060;18.726;2022-10-23T04:14:04;100776.67;;;11.92;100.00
51147;BME280;37207;53.060;18.726;2022-10-23T04:16:31;100773.86;;;11.92;100.00
51147;BME280;37207;53.060;18.726;2022-10-23T04:18:59;100774.30;;;11.92;100.00
51147;BME280;37207;53.060;18.726;2022-10-23T04:21:26;100772.55;;;11.93;100.00
51147;BME280;37207;53.060;18.726;2022-10-23T04:23:54;100774.86;;;11.92;100.00
51147;BME280;37207;53.060;18.726;2022-10-23T04:26:22;100777.79;;;11.92;100.00
51147;BME280;37207;53.060;18.726;2022-10-23T04:28:48;100773.11;;;11.93;100.00
51147;BME280;37207;53.060;18.726;2022-10-23T04:31:15;100773.91;;;11.92;100.00
51147;BME280;37207;53.060;18.726;2022-10-23T04:33:43;100779.15;;;11.93;100.00
51147;BME280;37207;53.060;18.726;2022-10-23T04:36:10;100777.64;;;11.94;100.00
51147;BME280;37207;53.060;18.726;2022-10-23T04:38:36;100780.52;;;11.93;100.00
51147;BME280;37207;53.060;18.726;2022-10-23T04:41:05;100786.50;;;11.94;100.00
51147;BME280;37207;53.060;18.726;2022-10-23T04:43:32;100789.88;;;11.94;100.00
51147;BME280;37207;53.060;18.726;2022-10-23T04:45:58;100787.61;;;11.95;100.00
51147;BME280;37207;53.060;18.726;2022-10-23T04:48:25;100792.23;;;11.95;100.00
51147;BME280;37207;53.060;18.726;2022-10-23T04:51:11;100786.11;;;11.95;100.00
51147;BME280;37207;53.060;18.726;2022-10-23T04:54:03;100784.13;;;11.94;100.00
51147;BME280;37207;53.060;18.726;2022-10-23T04:56:45;100778.80;;;11.94;100.00
51147;BME280;37207;53.060;18.726;2022-10-23T04:59:16;100774.13;;;11.93;100.00
51147;BME280;37207;53.060;18.726;2022-10-23T05:01:42;100777.19;;;11.93;100.00
51147;BME280;37207;53.060;18.726;2022-10-23T05:04:09;100779.86;;;11.93;100.00
51147;BME280;37207;53.060;18.726;2022-10-23T05:06:58;100783.83;;;11.93;100.00
51147;BME280;37207;53.060;18.726;2022-10-23T05:09:44;100788.26;;;11.93;100.00
51147;BME280;37207;53.060;18.726;2022-10-23T05:12:28;100783.62;;;11.92;100.00
51147;BME280;37207;53.060;18.726;2022-10-23T05:14:55;100784.48;;;11.93;100.00
51147;BME280;37207;53.060;18.726;2022-10-23T05:17:31;100788.00;;;11.92;100.00
51147;BME280;37207;53.060;18.726;2022-10-23T05:20:04;100788.25;;;11.92;100.00
51147;BME280;37207;53.060;18.726;2022-10-23T05:22:35;100793.63;;;11.92;100.00
51147;BME280;37207;53.060;18.726;2022-10-23T05:25:05;100788.20;;;11.92;100.00
51147;BME280;37207;53.060;18.726;2022-10-23T05:27:33;100786.73;;;11.91;100.00
51147;BME280;37207;53.060;18.726;2022-10-23T05:30:01;100788.13;;;11.90;100.00
51147;BME280;37207;53.060;18.726;2022-10-23T05:32:31;100784.99;;;11.90;100.00
51147;BME280;37207;53.060;18.726;2022-10-23T05:35:00;100783.63;;;11.88;100.00
51147;BME280;37207;53.060;18.726;2022-10-23T05:37:29;100782.42;;;11.88;100.00
51147;BME280;37207;53.060;18.726;2022-10-23T05:40:19;100785.88;;;11.87;100.00
51147;BME280;37207;53.060;18.726;2022-10-23T05:42:47;100790.25;;;11.86;100.00
51147;BME280;37207;53.060;18.726;2022-10-23T05:45:16;100789.34;;;11.85;100.00
51147;BME280;37207;53.060;18.726;2022-10-23T05:48:06;100791.85;;;11.85;100.00
51147;BME280;37207;53.060;18.726;2022-10-23T05:50:52;100792.30;;;11.84;100.00
51147;BME280;37207;53.060;18.726;2022-10-23T05:53:24;100788.61;;;11.83;100.00
51147;BME280;37207;53.060;18.726;2022-10-23T05:56:08;100780.00;;;11.83;100.00
51147;BME280;37207;53.060;18.726;2022-10-23T05:58:47;100776.98;;;11.83;100.00
51147;BME280;37207;53.060;18.726;2022-10-23T06:01:19;100776.13;;;11.83;100.00
51147;BME280;37207;53.060;18.726;2022-10-23T06:04:00;100778.95;;;11.83;100.00
51147;BME280;37207;53.060;18.726;2022-10-23T06:06:56;100781.16;;;11.83;100.00
51147;BME280;37207;53.060;18.726;2022-10-23T06:09:22;100778.45;;;11.84;100.00
51147;BME280;37207;53.060;18.726;2022-10-23T06:11:52;100776.75;;;11.85;100.00
51147;BME280;37207;53.060;18.726;2022-10-23T06:14:20;100776.10;;;11.85;100.00
51147;BME280;37207;53.060;18.726;2022-10-23T06:16:47;100776.96;;;11.86;100.00
51147;BME280;37207;53.060;18.726;2022-10-23T06:19:14;100787.74;;;11.87;100.00
51147;BME280;37207;53.060;18.726;2022-10-23T06:21:41;100788.26;;;11.88;100.00
51147;BME280;37207;53.060;18.726;2022-10-23T06:24:08;100794.20;;;11.89;100.00
51147;BME280;37207;53.060;18.726;2022-10-23T06:27:01;100793.91;;;11.90;100.00
51147;BME280;37207;53.060;18.726;2022-10-23T06:29:38;100791.66;;;11.92;100.00
51147;BME280;37207;53.060;18.726;2022-10-23T06:32:07;100791.52;;;11.93;100.00
51147;BME280;37207;53.060;18.726;2022-10-23T06:34:35;100793.10;;;11.95;100.00
51147;BME280;37207;53.060;18.726;2022-10-23T06:37:02;100790.64;;;11.97;100.00
51147;BME280;37207;53.060;18.726;2022-10-23T06:40:05;100793.12;;;11.99;100.00
51147;BME280;37207;53.060;18.726;2022-10-23T06:42:59;100797.06;;;12.00;100.00
51147;BME280;37207;53.060;18.726;2022-10-23T06:45:52;100801.66;;;12.02;100.00
51147;BME280;37207;53.060;18.726;2022-10-23T06:48:37;100803.19;;;12.03;100.00
51147;BME280;37207;53.060;18.726;2022-10-23T06:51:15;100806.16;;;12.05;100.00
51147;BME280;37207;53.060;18.726;2022-10-23T06:53:43;100809.63;;;12.07;100.00
51147;BME280;37207;53.060;18.726;2022-10-23T06:56:25;100811.20;;;12.08;100.00
51147;BME280;37207;53.060;18.726;2022-10-23T06:58:54;100813.92;;;12.10;100.00
51147;BME280;37207;53.060;18.726;2022-10-23T07:01:22;100809.09;;;12.12;100.00
51147;BME280;37207;53.060;18.726;2022-10-23T07:03:48;100808.05;;;12.14;100.00
51147;BME280;37207;53.060;18.726;2022-10-23T07:06:17;100814.35;;;12.16;100.00
51147;BME280;37207;53.060;18.726;2022-10-23T07:08:44;100815.33;;;12.18;100.00
51147;BME280;37207;53.060;18.726;2022-10-23T07:11:29;100820.14;;;12.19;100.00
51147;BME280;37207;53.060;18.726;2022-10-23T07:13:56;100818.29;;;12.21;100.00
51147;BME280;37207;53.060;18.726;2022-10-23T07:16:23;100822.83;;;12.22;100.00
51147;BME280;37207;53.060;18.726;2022-10-23T07:18:55;100824.25;;;12.24;100.00
51147;BME280;37207;53.060;18.726;2022-10-23T07:21:27;100826.14;;;12.25;100.00
51147;BME280;37207;53.060;18.726;2022-10-23T07:23:57;100825.39;;;12.27;100.00
51147;BME280;37207;53.060;18.726;2022-10-23T07:26:24;100821.67;;;12.28;100.00
51147;BME280;37207;53.060;18.726;2022-10-23T07:28:51;100827.20;;;12.30;100.00
51147;BME280;37207;53.060;18.726;2022-10-23T07:31:22;100826.86;;;12.32;100.00
51147;BME280;37207;53.060;18.726;2022-10-23T07:34:09;100822.61;;;12.34;100.00
51147;BME280;37207;53.060;18.726;2022-10-23T07:36:36;100822.17;;;12.36;100.00
51147;BME280;37207;53.060;18.726;2022-10-23T07:39:03;100824.61;;;12.38;100.00
51147;BME280;37207;53.060;18.726;2022-10-23T07:41:30;100826.43;;;12.39;100.00
51147;BME280;37207;53.060;18.726;2022-10-23T07:43:57;100828.11;;;12.40;100.00
51147;BME280;37207;53.060;18.726;2022-10-23T07:46:23;100835.61;;;12.40;100.00
51147;BME280;37207;53.060;18.726;2022-10-23T07:48:50;100837.54;;;12.41;100.00
51147;BME280;37207;53.060;18.726;2022-10-23T07:51:17;100837.52;;;12.41;100.00
51147;BME280;37207;53.060;18.726;2022-10-23T07:53:46;100840.05;;;12.41;100.00
51147;BME280;37207;53.060;18.726;2022-10-23T07:56:35;100844.29;;;12.42;100.00
51147;BME280;37207;53.060;18.726;2022-10-23T07:59:13;100837.25;;;12.43;100.00
51147;BME280;37207;53.060;18.726;2022-10-23T08:01:41;100833.77;;;12.44;100.00
51147;BME280;37207;53.060;18.726;2022-10-23T08:04:09;100830.32;;;12.46;100.00
51147;BME280;37207;53.060;18.726;2022-10-23T08:06:41;100830.37;;;12.49;100.00
51147;BME280;37207;53.060;18.726;2022-10-23T08:09:08;100830.34;;;12.52;100.00
51147;BME280;37207;53.060;18.726;2022-10-23T08:11:36;100833.85;;;12.54;100.00
51147;BME280;37207;53.060;18.726;2022-10-23T08:14:05;100832.06;;;12.59;100.00
51147;BME280;37207;53.060;18.726;2022-10-23T08:16:34;100832.95;;;12.62;100.00
51147;BME280;37207;53.060;18.726;2022-10-23T08:19:16;100830.20;;;12.68;100.00
51147;BME280;37207;53.060;18.726;2022-10-23T08:21:44;100826.90;;;12.72;100.00
51147;BME280;37207;53.060;18.726;2022-10-23T08:24:11;100827.98;;;12.75;100.00
51147;BME280;37207;53.060;18.726;2022-10-23T08:26:40;100826.64;;;12.77;100.00
51147;BME280;37207;53.060;18.726;2022-10-23T08:29:07;100827.30;;;12.80;100.00
51147;BME280;37207;53.060;18.726;2022-10-23T08:31:34;100831.49;;;12.84;100.00
51147;BME280;37207;53.060;18.726;2022-10-23T08:34:27;100827.23;;;12.85;100.00
51147;BME280;37207;53.060;18.726;2022-10-23T08:36:54;100828.28;;;12.85;100.00
51147;BME280;37207;53.060;18.726;2022-10-23T08:39:21;100835.69;;;12.84;100.00
51147;BME280;37207;53.060;18.726;2022-10-23T08:42:17;100846.41;;;12.84;100.00
51147;BME280;37207;53.060;18.726;2022-10-23T08:44:51;100844.95;;;12.83;100.00
51147;BME280;37207;53.060;18.726;2022-10-23T08:47:38;100844.25;;;12.84;100.00
51147;BME280;37207;53.060;18.726;2022-10-23T08:50:35;100845.00;;;12.90;100.00
51147;BME280;37207;53.060;18.726;2022-10-23T08:53:14;100847.30;;;12.95;100.00
51147;BME280;37207;53.060;18.726;2022-10-23T08:55:45;100847.42;;;12.99;100.00
51147;BME280;37207;53.060;18.726;2022-10-23T08:58:17;100851.32;;;13.04;100.00
51147;BME280;37207;53.060;18.726;2022-10-23T09:00:50;100855.50;;;13.11;100.00
51147;BME280;37207;53.060;18.726;2022-10-23T09:03:17;100860.45;;;13.16;100.00
51147;BME280;37207;53.060;18.726;2022-10-23T09:09:01;100864.40;;;13.21;100.00
51147;BME280;37207;53.060;18.726;2022-10-23T09:11:42;100867.73;;;13.22;100.00
51147;BME280;37207;53.060;18.726;2022-10-23T09:17:07;100870.76;;;13.22;100.00
51147;BME280;37207;53.060;18.726;2022-10-23T09:19:36;100872.64;;;13.23;100.00
51147;BME280;37207;53.060;18.726;2022-10-23T09:22:04;100879.85;;;13.24;100.00
51147;BME280;37207;53.060;18.726;2022-10-23T09:24:31;100884.43;;;13.24;100.00
51147;BME280;37207;53.060;18.726;2022-10-23T09:26:59;100884.80;;;13.25;100.00
51147;BME280;37207;53.060;18.726;2022-10-23T09:29:33;100887.27;;;13.26;100.00
51147;BME280;37207;53.060;18.726;2022-10-23T09:32:05;100889.59;;;13.27;100.00
51147;BME280;37207;53.060;18.726;2022-10-23T09:34:33;100890.90;;;13.26;100.00
51147;BME280;37207;53.060;18.726;2022-10-23T09:37:20;100891.96;;;13.26;100.00
51147;BME280;37207;53.060;18.726;2022-10-23T09:39:47;100893.51;;;13.22;100.00
51147;BME280;37207;53.060;18.726;2022-10-23T09:42:31;100898.70;;;13.22;100.00
51147;BME280;37207;53.060;18.726;2022-10-23T09:44:58;100900.17;;;13.24;100.00
51147;BME280;37207;53.060;18.726;2022-10-23T09:47:25;100900.65;;;13.28;100.00
51147;BME280;37207;53.060;18.726;2022-10-23T09:49:54;100903.24;;;13.33;100.00
51147;BME280;37207;53.060;18.726;2022-10-23T09:52:29;100896.95;;;13.38;100.00
51147;BME280;37207;53.060;18.726;2022-10-23T09:55:00;100897.59;;;13.42;100.00
51147;BME280;37207;53.060;18.726;2022-10-23T09:57:39;100891.11;;;13.48;100.00
51147;BME280;37207;53.060;18.726;2022-10-23T10:00:19;100886.92;;;13.54;100.00
51147;BME280;37207;53.060;18.726;2022-10-23T10:03:06;100881.64;;;13.58;100.00
51147;BME280;37207;53.060;18.726;2022-10-23T10:06:00;100879.52;;;13.57;100.00
51147;BME280;37207;53.060;18.726;2022-10-23T10:08:45;100887.14;;;13.57;100.00
51147;BME280;37207;53.060;18.726;2022-10-23T10:13:55;100890.13;;;13.60;100.00
51147;BME280;37207;53.060;18.726;2022-10-23T10:25:01;100882.83;;;13.64;100.00
51147;BME280;37207;53.060;18.726;2022-10-23T10:30:35;100881.23;;;13.64;100.00
51147;BME280;37207;53.060;18.726;2022-10-23T10:33:17;100883.40;;;13.65;100.00
51147;BME280;37207;53.060;18.726;2022-10-23T10:38:48;100880.98;;;13.67;100.00
51147;BME280;37207;53.060;18.726;2022-10-23T10:49:53;100878.64;;;13.70;100.00
51147;BME280;37207;53.060;18.726;2022-10-23T10:55:40;100878.14;;;13.83;100.00
51147;BME280;37207;53.060;18.726;2022-10-23T11:00:53;100882.61;;;13.99;100.00
51147;BME280;37207;53.060;18.726;2022-10-23T11:03:51;100878.57;;;14.03;100.00
51147;BME280;37207;53.060;18.726;2022-10-23T11:06:22;100878.37;;;14.06;100.00
51147;BME280;37207;53.060;18.726;2022-10-23T11:08:51;100875.91;;;14.11;100.00
51147;BME280;37207;53.060;18.726;2022-10-23T11:11:44;100870.92;;;14.15;100.00
51147;BME280;37207;53.060;18.726;2022-10-23T11:14:18;100873.18;;;14.21;100.00
51147;BME280;37207;53.060;18.726;2022-10-23T11:17:01;100867.53;;;14.24;100.00
51147;BME280;37207;53.060;18.726;2022-10-23T11:19:36;100870.61;;;14.26;100.00
51147;BME280;37207;53.060;18.726;2022-10-23T11:22:20;100868.66;;;14.28;100.00
51147;BME280;37207;53.060;18.726;2022-10-23T11:37:43;100866.39;;;14.37;100.00
51147;BME280;37207;53.060;18.726;2022-10-23T11:45:34;100861.77;;;14.38;100.00
51147;BME280;37207;53.060;18.726;2022-10-23T11:48:38;100868.30;;;14.37;100.00
51147;BME280;37207;53.060;18.726;2022-10-23T11:51:34;100865.88;;;14.37;100.00
51147;BME280;37207;53.060;18.726;2022-10-23T11:54:05;100866.68;;;14.40;100.00
51147;BME280;37207;53.060;18.726;2022-10-23T11:56:32;100865.66;;;14.39;100.00
51147;BME280;37207;53.060;18.726;2022-10-23T11:59:20;100863.45;;;14.38;100.00
51147;BME280;37207;53.060;18.726;2022-10-23T12:01:50;100865.02;;;14.35;100.00
51147;BME280;37207;53.060;18.726;2022-10-23T12:04:21;100865.98;;;14.32;100.00
51147;BME280;37207;53.060;18.726;2022-10-23T12:06:58;100857.88;;;14.28;100.00
51147;BME280;37207;53.060;18.726;2022-10-23T12:09:42;100858.73;;;14.25;100.00
51147;BME280;37207;53.060;18.726;2022-10-23T12:14:47;100854.49;;;14.22;100.00
51147;BME280;37207;53.060;18.726;2022-10-23T12:19:54;100853.81;;;14.33;100.00
51147;BME280;37207;53.060;18.726;2022-10-23T12:22:36;100855.64;;;14.44;100.00
51147;BME280;37207;53.060;18.726;2022-10-23T12:28:02;100847.47;;;15.12;100.00
51147;BME280;37207;53.060;18.726;2022-10-23T12:30:44;100847.03;;;15.32;99.84
51147;BME280;37207;53.060;18.726;2022-10-23T12:38:44;100839.67;;;15.61;98.49
51147;BME280;37207;53.060;18.726;2022-10-23T12:41:15;100840.43;;;15.78;98.31
51147;BME280;37207;53.060;18.726;2022-10-23T12:43:48;100836.24;;;15.85;97.97
51147;BME280;37207;53.060;18.726;2022-10-23T12:46:24;100841.48;;;15.83;97.54
51147;BME280;37207;53.060;18.726;2022-10-23T12:48:54;100842.14;;;15.82;96.98
51147;BME280;37207;53.060;18.726;2022-10-23T12:51:28;100841.94;;;15.80;96.86
51147;BME280;37207;53.060;18.726;2022-10-23T12:53:56;100843.23;;;15.76;96.71
51147;BME280;37207;53.060;18.726;2022-10-23T12:56:24;100839.84;;;15.68;96.44
51147;BME280;37207;53.060;18.726;2022-10-23T12:58:52;100837.33;;;15.63;96.46
51147;BME280;37207;53.060;18.726;2022-10-23T13:01:37;100842.30;;;15.61;96.40
51147;BME280;37207;53.060;18.726;2022-10-23T13:04:14;100839.50;;;15.58;96.12
51147;BME280;37207;53.060;18.726;2022-10-23T13:06:41;100837.22;;;15.55;96.10
51147;BME280;37207;53.060;18.726;2022-10-23T13:09:28;100838.14;;;15.50;95.74
51147;BME280;37207;53.060;18.726;2022-10-23T13:13:04;100836.69;;;15.46;95.80
51147;BME280;37207;53.060;18.726;2022-10-23T13:15:42;100830.88;;;15.38;95.56
51147;BME280;37207;53.060;18.726;2022-10-23T13:18:11;100828.41;;;15.32;95.76
51147;BME280;37207;53.060;18.726;2022-10-23T13:21:02;100831.16;;;15.28;95.75
51147;BME280;37207;53.060;18.726;2022-10-23T13:23:33;100831.01;;;15.26;95.76
51147;BME280;37207;53.060;18.726;2022-10-23T13:26:16;100826.34;;;15.29;95.69
51147;BME280;37207;53.060;18.726;2022-10-23T13:28:46;100823.52;;;15.40;95.57
51147;BME280;37207;53.060;18.726;2022-10-23T13:33:43;100828.15;;;15.67;95.48
51147;BME280;37207;53.060;18.726;2022-10-23T13:38:42;100839.73;;;15.71;94.40
51147;BME280;37207;53.060;18.726;2022-10-23T13:41:17;100838.45;;;15.65;94.03
51147;BME280;37207;53.060;18.726;2022-10-23T13:43:46;100840.25;;;15.58;94.06
51147;BME280;37207;53.060;18.726;2022-10-23T13:46:18;100836.56;;;15.52;94.19
51147;BME280;37207;53.060;18.726;2022-10-23T13:48:45;100838.25;;;15.46;94.05
51147;BME280;37207;53.060;18.726;2022-10-23T13:51:15;100834.77;;;15.42;94.31
51147;BME280;37207;53.060;18.726;2022-10-23T13:53:44;100832.89;;;15.38;94.19
51147;BME280;37207;53.060;18.726;2022-10-23T13:56:13;100827.23;;;15.35;94.30
51147;BME280;37207;53.060;18.726;2022-10-23T13:58:40;100828.55;;;15.33;94.35
51147;BME280;37207;53.060;18.726;2022-10-23T14:01:27;100836.23;;;15.37;94.40
51147;BME280;37207;53.060;18.726;2022-10-23T14:03:56;100834.56;;;15.39;94.50
51147;BME280;37207;53.060;18.726;2022-10-23T14:06:23;100832.85;;;15.45;94.43
51147;BME280;37207;53.060;18.726;2022-10-23T14:08:50;100829.86;;;15.44;94.08
51147;BME280;37207;53.060;18.726;2022-10-23T14:11:18;100828.70;;;15.37;93.82
51147;BME280;37207;53.060;18.726;2022-10-23T14:13:46;100825.92;;;15.31;93.75
51147;BME280;37207;53.060;18.726;2022-10-23T14:16:14;100824.98;;;15.27;93.55
51147;BME280;37207;53.060;18.726;2022-10-23T14:18:41;100822.04;;;15.22;93.37
51147;BME280;37207;53.060;18.726;2022-10-23T14:21:10;100816.34;;;15.18;93.32
51147;BME280;37207;53.060;18.726;2022-10-23T14:23:38;100812.34;;;15.14;93.42
51147;BME280;37207;53.060;18.726;2022-10-23T14:26:08;100810.60;;;15.07;93.30
51147;BME280;37207;53.060;18.726;2022-10-23T14:28:35;100811.65;;;15.00;93.27
51147;BME280;37207;53.060;18.726;2022-10-23T14:31:03;100808.02;;;14.92;93.33
51147;BME280;37207;53.060;18.726;2022-10-23T14:33:31;100805.63;;;14.83;93.28
51147;BME280;37207;53.060;18.726;2022-10-23T14:35:58;100812.77;;;14.74;93.29
51147;BME280;37207;53.060;18.726;2022-10-23T14:38:25;100814.33;;;14.66;93.35
51147;BME280;37207;53.060;18.726;2022-10-23T14:40:52;100811.25;;;14.57;93.28